sensor_id;sensor_type;location;lat;lon;timestamp;temperature;humidity
21037;DHT22;10677;50.942;4.028;2023-02-01T00:01:43;8.50;99.90
21037;DHT22;10677;50.942;4.028;2023-02-01T00:04:09;8.50;99.90
21037;DHT22;10677;50.942;4.028;2023-02-01T00:06:35;8.30;99.90
21037;DHT22;10677;50.942;4.028;2023-02-01T00:09:01;8.20;99.90
21037;DHT22;10677;50.942;4.028;2023-02-01T00:11:27;8.30;99.90
21037;DHT22;10677;50.942;4.028;2023-02-01T00:13:53;8.30;99.90
21037;DHT22;10677;50.942;4.028;2023-02-01T00:16:21;8.30;99.90
21037;DHT22;10677;50.942;4.028;2023-02-01T00:18:48;8.20;99.90
21037;DHT22;10677;50.942;4.028;2023-02-01T00:21:16;8.10;99.90
21037;DHT22;10677;50.942;4.028;2023-02-01T00:23:42;8.10;99.90
21037;DHT22;10677;50.942;4.028;2023-02-01T00:26:14;7.90;99.90
21037;DHT22;10677;50.942;4.028;2023-02-01T00:28:40;7.80;99.90
21037;DHT22;10677;50.942;4.028;2023-02-01T00:31:05;7.90;99.90
21037;DHT22;10677;50.942;4.028;2023-02-01T00:33:32;7.80;99.90
21037;DHT22;10677;50.942;4.028;2023-02-01T00:35:59;8.00;99.90
21037;DHT22;10677;50.942;4.028;2023-02-01T00:38:26;8.00;99.90
21037;DHT22;10677;50.942;4.028;2023-02-01T00:40:52;8.10;99.90
21037;DHT22;10677;50.942;4.028;2023-02-01T00:43:17;8.20;99.90
21037;DHT22;10677;50.942;4.028;2023-02-01T00:45:44;8.30;99.90
21037;DHT22;10677;50.942;4.028;2023-02-01T00:48:10;8.10;99.90
21037;DHT22;10677;50.942;4.028;2023-02-01T00:50:35;8.00;99.90
21037;DHT22;10677;50.942;4.028;2023-02-01T00:53:06;8.00;99.90
21037;DHT22;10677;50.942;4.028;2023-02-01T00:55:31;8.00;99.90
21037;DHT22;10677;50.942;4.028;2023-02-01T00:57:57;8.00;99.90
21037;DHT22;10677;50.942;4.028;2023-02-01T01:00:22;7.90;99.90
21037;DHT22;10677;50.942;4.028;2023-02-01T01:02:48;7.90;99.90
21037;DHT22;10677;50.942;4.028;2023-02-01T01:05:14;8.00;99.90
21037;DHT22;10677;50.942;4.028;2023-02-01T01:07:39;7.70;99.90
21037;DHT22;10677;50.942;4.028;2023-02-01T01:10:07;7.50;99.90
21037;DHT22;10677;50.942;4.028;2023-02-01T01:12:32;7.60;99.90
21037;DHT22;10677;50.942;4.028;2023-02-01T01:14:58;7.50;99.90
21037;DHT22;10677;50.942;4.028;2023-02-01T01:17:24;7.40;99.90
21037;DHT22;10677;50.942;4.028;2023-02-01T01:19:49;7.40;99.90
21037;DHT22;10677;50.942;4.028;2023-02-01T01:22:15;7.30;99.90
21037;DHT22;10677;50.942;4.028;2023-02-01T01:24:40;7.40;99.90
21037;DHT22;10677;50.942;4.028;2023-02-01T01:27:06;7.30;99.90
21037;DHT22;10677;50.942;4.028;2023-02-01T01:29:32;7.50;99.90
21037;DHT22;10677;50.942;4.028;2023-02-01T01:31:57;7.40;99.90
21037;DHT22;10677;50.942;4.028;2023-02-01T01:34:23;7.30;99.90
21037;DHT22;10677;50.942;4.028;2023-02-01T01:36:48;7.40;99.90
21037;DHT22;10677;50.942;4.028;2023-02-01T01:39:14;7.40;99.90
21037;DHT22;10677;50.942;4.028;2023-02-01T01:41:40;7.40;99.90
21037;DHT22;10677;50.942;4.028;2023-02-01T01:44:53;7.20;99.90
21037;DHT22;10677;50.942;4.028;2023-02-01T01:46:52;7.10;99.90
21037;DHT22;10677;50.942;4.028;2023-02-01T01:49:22;7.20;99.90
21037;DHT22;10677;50.942;4.028;2023-02-01T01:51:59;7.10;99.90
21037;DHT22;10677;50.942;4.028;2023-02-01T01:54:31;7.00;99.90
21037;DHT22;10677;50.942;4.028;2023-02-01T01:57:02;6.90;99.90
21037;DHT22;10677;50.942;4.028;2023-02-01T01:59:31;7.10;99.90
21037;DHT22;10677;50.942;4.028;2023-02-01T02:01:58;7.10;99.90
21037;DHT22;10677;50.942;4.028;2023-02-01T02:04:24;7.10;99.90
21037;DHT22;10677;50.942;4.028;2023-02-01T02:06:56;7.10;99.90
21037;DHT22;10677;50.942;4.028;2023-02-01T02:09:23;7.10;99.90
21037;DHT22;10677;50.942;4.028;2023-02-01T02:11:49;7.10;99.90
21037;DHT22;10677;50.942;4.028;2023-02-01T02:14:17;7.20;99.90
21037;DHT22;10677;50.942;4.028;2023-02-01T02:17:15;7.20;99.90
21037;DHT22;10677;50.942;4.028;2023-02-01T02:19:54;7.20;99.90
21037;DHT22;10677;50.942;4.028;2023-02-01T02:22:42;7.30;99.90
21037;DHT22;10677;50.942;4.028;2023-02-01T02:33:52;7.10;99.90
21037;DHT22;10677;50.942;4.028;2023-02-01T02:39:29;7.00;99.90
21037;DHT22;10677;50.942;4.028;2023-02-01T02:42:14;6.90;99.90
21037;DHT22;10677;50.942;4.028;2023-02-01T02:45:25;6.90;99.90
21037;DHT22;10677;50.942;4.028;2023-02-01T02:48:19;6.90;99.90
21037;DHT22;10677;50.942;4.028;2023-02-01T02:51:13;6.80;99.90
21037;DHT22;10677;50.942;4.028;2023-02-01T02:54:11;6.80;99.90
21037;DHT22;10677;50.942;4.028;2023-02-01T02:56:57;6.90;99.90
21037;DHT22;10677;50.942;4.028;2023-02-01T02:59:43;6.90;99.90
21037;DHT22;10677;50.942;4.028;2023-02-01T03:02:28;6.90;99.90
21037;DHT22;10677;50.942;4.028;2023-02-01T03:05:13;7.00;99.90
21037;DHT22;10677;50.942;4.028;2023-02-01T03:12:54;7.10;99.90
21037;DHT22;10677;50.942;4.028;2023-02-01T03:15:36;7.10;99.90
21037;DHT22;10677;50.942;4.028;2023-02-01T03:18:10;7.10;99.90
21037;DHT22;10677;50.942;4.028;2023-02-01T03:20:40;7.00;99.90
21037;DHT22;10677;50.942;4.028;2023-02-01T03:23:08;7.10;99.90
21037;DHT22;10677;50.942;4.028;2023-02-01T03:25:35;7.00;99.90
21037;DHT22;10677;50.942;4.028;2023-02-01T03:28:04;6.90;99.90
21037;DHT22;10677;50.942;4.028;2023-02-01T03:30:36;6.90;99.90
21037;DHT22;10677;50.942;4.028;2023-02-01T03:33:05;6.90;99.90
21037;DHT22;10677;50.942;4.028;2023-02-01T03:38:30;6.90;99.90
21037;DHT22;10677;50.942;4.028;2023-02-01T03:41:13;6.90;99.90
21037;DHT22;10677;50.942;4.028;2023-02-01T03:46:23;6.90;99.90
21037;DHT22;10677;50.942;4.028;2023-02-01T03:48:52;6.80;99.90
21037;DHT22;10677;50.942;4.028;2023-02-01T03:51:20;6.90;99.90
21037;DHT22;10677;50.942;4.028;2023-02-01T03:53:47;6.90;99.90
21037;DHT22;10677;50.942;4.028;2023-02-01T03:56:16;6.80;99.90
21037;DHT22;10677;50.942;4.028;2023-02-01T03:58:42;6.80;99.90
21037;DHT22;10677;50.942;4.028;2023-02-01T04:01:23;6.80;99.90
21037;DHT22;10677;50.942;4.028;2023-02-01T04:03:48;6.70;99.90
21037;DHT22;10677;50.942;4.028;2023-02-01T04:06:16;6.80;99.90
21037;DHT22;10677;50.942;4.028;2023-02-01T04:08:42;6.60;99.90
21037;DHT22;10677;50.942;4.028;2023-02-01T04:11:08;6.60;99.90
21037;DHT22;10677;50.942;4.028;2023-02-01T04:13:33;6.70;99.90
21037;DHT22;10677;50.942;4.028;2023-02-01T04:15:59;6.70;99.90
21037;DHT22;10677;50.942;4.028;2023-02-01T04:18:24;6.60;99.90
21037;DHT22;10677;50.942;4.028;2023-02-01T04:20:50;6.60;99.90
21037;DHT22;10677;50.942;4.028;2023-02-01T04:23:16;6.50;99.90
21037;DHT22;10677;50.942;4.028;2023-02-01T04:25:41;6.50;99.90
21037;DHT22;10677;50.942;4.028;2023-02-01T04:28:07;6.60;99.90
21037;DHT22;10677;50.942;4.028;2023-02-01T04:30:32;6.40;99.90
21037;DHT22;10677;50.942;4.028;2023-02-01T04:32:58;6.30;99.90
21037;DHT22;10677;50.942;4.028;2023-02-01T04:35:24;6.30;99.90
21037;DHT22;10677;50.942;4.028;2023-02-01T04:37:49;6.30;99.90
21037;DHT22;10677;50.942;4.028;2023-02-01T04:40:15;6.20;99.90
21037;DHT22;10677;50.942;4.028;2023-02-01T04:42:41;6.20;99.90
21037;DHT22;10677;50.942;4.028;2023-02-01T04:45:07;6.30;99.90
21037;DHT22;10677;50.942;4.028;2023-02-01T04:47:34;6.40;99.90
21037;DHT22;10677;50.942;4.028;2023-02-01T04:50:00;6.40;99.90
21037;DHT22;10677;50.942;4.028;2023-02-01T04:52:25;6.40;99.90
21037;DHT22;10677;50.942;4.028;2023-02-01T04:54:52;6.40;99.90
21037;DHT22;10677;50.942;4.028;2023-02-01T04:57:20;6.30;99.90
21037;DHT22;10677;50.942;4.028;2023-02-01T04:59:48;6.30;99.90
21037;DHT22;10677;50.942;4.028;2023-02-01T05:02:14;6.30;99.90
21037;DHT22;10677;50.942;4.028;2023-02-01T05:04:39;6.40;99.90
21037;DHT22;10677;50.942;4.028;2023-02-01T05:07:05;6.30;99.90
21037;DHT22;10677;50.942;4.028;2023-02-01T05:09:30;6.20;99.90
21037;DHT22;10677;50.942;4.028;2023-02-01T05:11:56;6.20;99.90
21037;DHT22;10677;50.942;4.028;2023-02-01T05:14:40;6.30;99.90
21037;DHT22;10677;50.942;4.028;2023-02-01T05:17:06;6.30;99.90
21037;DHT22;10677;50.942;4.028;2023-02-01T05:19:32;6.20;99.90
21037;DHT22;10677;50.942;4.028;2023-02-01T05:21:57;6.20;99.90
21037;DHT22;10677;50.942;4.028;2023-02-01T05:24:23;6.30;99.90
21037;DHT22;10677;50.942;4.028;2023-02-01T05:26:49;6.30;99.90
21037;DHT22;10677;50.942;4.028;2023-02-01T05:29:16;6.20;99.90
21037;DHT22;10677;50.942;4.028;2023-02-01T05:31:44;6.20;99.90
21037;DHT22;10677;50.942;4.028;2023-02-01T05:34:10;6.30;99.90
21037;DHT22;10677;50.942;4.028;2023-02-01T05:36:36;6.30;99.90
21037;DHT22;10677;50.942;4.028;2023-02-01T05:39:02;6.30;99.90
21037;DHT22;10677;50.942;4.028;2023-02-01T05:41:28;6.10;99.90
21037;DHT22;10677;50.942;4.028;2023-02-01T05:43:53;6.10;99.90
21037;DHT22;10677;50.942;4.028;2023-02-01T05:46:19;6.10;99.90
21037;DHT22;10677;50.942;4.028;2023-02-01T05:48:46;6.10;99.90
21037;DHT22;10677;50.942;4.028;2023-02-01T05:51:12;6.10;99.90
21037;DHT22;10677;50.942;4.028;2023-02-01T05:53:38;6.00;99.90
21037;DHT22;10677;50.942;4.028;2023-02-01T05:56:04;6.00;99.90
21037;DHT22;10677;50.942;4.028;2023-02-01T05:58:30;6.00;99.90
21037;DHT22;10677;50.942;4.028;2023-02-01T06:00:59;6.00;99.90
21037;DHT22;10677;50.942;4.028;2023-02-01T06:03:26;6.00;99.90
21037;DHT22;10677;50.942;4.028;2023-02-01T06:05:51;6.00;99.90
21037;DHT22;10677;50.942;4.028;2023-02-01T06:08:17;5.90;99.90
21037;DHT22;10677;50.942;4.028;2023-02-01T06:10:43;5.90;99.90
21037;DHT22;10677;50.942;4.028;2023-02-01T06:13:09;6.00;99.90
21037;DHT22;10677;50.942;4.028;2023-02-01T06:15:34;6.00;99.90
21037;DHT22;10677;50.942;4.028;2023-02-01T06:18:00;6.00;99.90
21037;DHT22;10677;50.942;4.028;2023-02-01T06:20:26;6.00;99.90
21037;DHT22;10677;50.942;4.028;2023-02-01T06:22:52;5.90;99.90
21037;DHT22;10677;50.942;4.028;2023-02-01T06:25:18;5.80;99.90
21037;DHT22;10677;50.942;4.028;2023-02-01T06:27:44;5.80;99.90
21037;DHT22;10677;50.942;4.028;2023-02-01T06:30:11;5.80;99.90
21037;DHT22;10677;50.942;4.028;2023-02-01T06:32:40;5.80;99.90
21037;DHT22;10677;50.942;4.028;2023-02-01T06:35:10;5.90;99.90
21037;DHT22;10677;50.942;4.028;2023-02-01T06:37:41;5.90;99.90
21037;DHT22;10677;50.942;4.028;2023-02-01T06:40:08;5.80;99.90
21037;DHT22;10677;50.942;4.028;2023-02-01T06:42:34;5.90;99.90
21037;DHT22;10677;50.942;4.028;2023-02-01T06:44:59;5.80;99.90
21037;DHT22;10677;50.942;4.028;2023-02-01T06:47:25;5.80;99.90
21037;DHT22;10677;50.942;4.028;2023-02-01T06:49:51;5.80;99.90
21037;DHT22;10677;50.942;4.028;2023-02-01T06:52:17;5.90;99.90
21037;DHT22;10677;50.942;4.028;2023-02-01T06:54:43;5.80;99.90
21037;DHT22;10677;50.942;4.028;2023-02-01T06:57:10;5.80;99.90
21037;DHT22;10677;50.942;4.028;2023-02-01T06:59:36;5.90;99.90
21037;DHT22;10677;50.942;4.028;2023-02-01T07:02:01;5.90;99.90
21037;DHT22;10677;50.942;4.028;2023-02-01T07:04:27;5.80;99.90
21037;DHT22;10677;50.942;4.028;2023-02-01T07:06:53;5.80;99.90
21037;DHT22;10677;50.942;4.028;2023-02-01T07:09:18;5.80;99.90
21037;DHT22;10677;50.942;4.028;2023-02-01T07:11:44;5.80;99.90
21037;DHT22;10677;50.942;4.028;2023-02-01T07:14:10;5.80;99.90
21037;DHT22;10677;50.942;4.028;2023-02-01T07:16:36;5.90;99.90
21037;DHT22;10677;50.942;4.028;2023-02-01T07:19:02;5.80;99.90
21037;DHT22;10677;50.942;4.028;2023-02-01T07:21:28;5.80;99.90
21037;DHT22;10677;50.942;4.028;2023-02-01T07:23:55;5.80;99.90
21037;DHT22;10677;50.942;4.028;2023-02-01T07:26:22;5.80;99.90
21037;DHT22;10677;50.942;4.028;2023-02-01T07:28:48;5.90;99.90
21037;DHT22;10677;50.942;4.028;2023-02-01T07:31:16;5.90;99.90
21037;DHT22;10677;50.942;4.028;2023-02-01T07:33:44;5.90;99.90
21037;DHT22;10677;50.942;4.028;2023-02-01T07:36:15;5.90;99.90
21037;DHT22;10677;50.942;4.028;2023-02-01T07:38:42;6.00;99.90
21037;DHT22;10677;50.942;4.028;2023-02-01T07:41:08;6.10;99.90
21037;DHT22;10677;50.942;4.028;2023-02-01T07:43:35;6.10;99.90
21037;DHT22;10677;50.942;4.028;2023-02-01T07:46:02;6.10;99.90
21037;DHT22;10677;50.942;4.028;2023-02-01T07:48:29;6.20;99.90
21037;DHT22;10677;50.942;4.028;2023-02-01T07:51:02;6.10;99.90
21037;DHT22;10677;50.942;4.028;2023-02-01T07:53:30;6.10;99.90
21037;DHT22;10677;50.942;4.028;2023-02-01T07:55:57;6.20;99.90
21037;DHT22;10677;50.942;4.028;2023-02-01T07:58:24;6.20;99.90
21037;DHT22;10677;50.942;4.028;2023-02-01T08:00:50;6.30;99.90
21037;DHT22;10677;50.942;4.028;2023-02-01T08:03:35;6.30;99.90
21037;DHT22;10677;50.942;4.028;2023-02-01T08:06:00;6.40;99.90
21037;DHT22;10677;50.942;4.028;2023-02-01T08:08:26;6.40;99.90
21037;DHT22;10677;50.942;4.028;2023-02-01T08:11:00;6.40;99.90
21037;DHT22;10677;50.942;4.028;2023-02-01T08:13:26;6.40;99.90
21037;DHT22;10677;50.942;4.028;2023-02-01T08:15:52;6.50;99.90
21037;DHT22;10677;50.942;4.028;2023-02-01T08:18:17;6.40;99.90
21037;DHT22;10677;50.942;4.028;2023-02-01T08:20:44;6.50;99.90
21037;DHT22;10677;50.942;4.028;2023-02-01T08:23:11;6.50;99.90
21037;DHT22;10677;50.942;4.028;2023-02-01T08:25:37;6.50;99.90
21037;DHT22;10677;50.942;4.028;2023-02-01T08:28:09;6.60;99.90
21037;DHT22;10677;50.942;4.028;2023-02-01T08:30:37;6.50;99.90
21037;DHT22;10677;50.942;4.028;2023-02-01T08:33:05;6.50;99.90
21037;DHT22;10677;50.942;4.028;2023-02-01T08:35:38;6.50;99.90
21037;DHT22;10677;50.942;4.028;2023-02-01T08:38:05;6.60;99.90
21037;DHT22;10677;50.942;4.028;2023-02-01T08:40:32;6.50;99.90
21037;DHT22;10677;50.942;4.028;2023-02-01T08:42:59;6.60;99.90
21037;DHT22;10677;50.942;4.028;2023-02-01T08:45:27;6.60;99.90
21037;DHT22;10677;50.942;4.028;2023-02-01T08:47:57;6.50;99.90
21037;DHT22;10677;50.942;4.028;2023-02-01T08:50:24;6.40;99.90
21037;DHT22;10677;50.942;4.028;2023-02-01T08:52:51;6.40;99.90
21037;DHT22;10677;50.942;4.028;2023-02-01T08:55:17;6.40;99.90
21037;DHT22;10677;50.942;4.028;2023-02-01T08:57:43;6.50;99.90
21037;DHT22;10677;50.942;4.028;2023-02-01T09:00:13;6.60;99.90
21037;DHT22;10677;50.942;4.028;2023-02-01T09:02:39;6.70;99.90
21037;DHT22;10677;50.942;4.028;2023-02-01T09:05:05;6.80;99.90
21037;DHT22;10677;50.942;4.028;2023-02-01T09:07:33;6.90;99.90
21037;DHT22;10677;50.942;4.028;2023-02-01T09:09:59;7.00;99.90
21037;DHT22;10677;50.942;4.028;2023-02-01T09:12:30;7.20;99.90
21037;DHT22;10677;50.942;4.028;2023-02-01T09:14:56;7.30;99.90
21037;DHT22;10677;50.942;4.028;2023-02-01T09:17:23;7.40;99.90
21037;DHT22;10677;50.942;4.028;2023-02-01T09:19:48;7.50;99.90
21037;DHT22;10677;50.942;4.028;2023-02-01T09:22:15;7.50;99.90
21037;DHT22;10677;50.942;4.028;2023-02-01T09:24:42;7.60;99.90
21037;DHT22;10677;50.942;4.028;2023-02-01T09:27:07;7.60;99.90
21037;DHT22;10677;50.942;4.028;2023-02-01T09:29:33;7.60;99.90
21037;DHT22;10677;50.942;4.028;2023-02-01T09:31:59;7.60;99.90
21037;DHT22;10677;50.942;4.028;2023-02-01T09:34:26;7.60;99.90
21037;DHT22;10677;50.942;4.028;2023-02-01T09:36:52;7.70;99.90
21037;DHT22;10677;50.942;4.028;2023-02-01T09:39:19;7.60;99.90
21037;DHT22;10677;50.942;4.028;2023-02-01T09:42:00;7.80;99.90
21037;DHT22;10677;50.942;4.028;2023-02-01T09:44:42;7.60;99.90
21037;DHT22;10677;50.942;4.028;2023-02-01T09:47:14;7.50;99.90
21037;DHT22;10677;50.942;4.028;2023-02-01T09:49:48;7.60;99.90
21037;DHT22;10677;50.942;4.028;2023-02-01T09:52:17;7.50;99.90
21037;DHT22;10677;50.942;4.028;2023-02-01T09:55:00;7.60;99.90
21037;DHT22;10677;50.942;4.028;2023-02-01T09:57:46;7.70;99.90
21037;DHT22;10677;50.942;4.028;2023-02-01T10:00:52;7.90;99.90
21037;DHT22;10677;50.942;4.028;2023-02-01T10:03:19;8.00;99.90
21037;DHT22;10677;50.942;4.028;2023-02-01T10:05:55;8.30;99.90
21037;DHT22;10677;50.942;4.028;2023-02-01T10:14:46;8.40;99.90
21037;DHT22;10677;50.942;4.028;2023-02-01T10:25:53;8.40;99.90
21037;DHT22;10677;50.942;4.028;2023-02-01T10:28:20;8.40;99.90
21037;DHT22;10677;50.942;4.028;2023-02-01T10:30:48;8.50;99.90
21037;DHT22;10677;50.942;4.028;2023-02-01T10:33:22;8.60;99.90
21037;DHT22;10677;50.942;4.028;2023-02-01T10:35:55;8.60;99.90
21037;DHT22;10677;50.942;4.028;2023-02-01T10:38:29;8.50;99.90
21037;DHT22;10677;50.942;4.028;2023-02-01T10:41:01;8.50;99.90
21037;DHT22;10677;50.942;4.028;2023-02-01T10:43:27;8.50;99.90
21037;DHT22;10677;50.942;4.028;2023-02-01T10:45:55;8.70;99.90
21037;DHT22;10677;50.942;4.028;2023-02-01T10:48:20;8.80;99.90
21037;DHT22;10677;50.942;4.028;2023-02-01T10:50:58;9.00;99.90
21037;DHT22;10677;50.942;4.028;2023-02-01T10:56:23;9.20;99.90
21037;DHT22;10677;50.942;4.028;2023-02-01T10:58:49;9.10;99.90
21037;DHT22;10677;50.942;4.028;2023-02-01T11:01:34;9.00;99.90
21037;DHT22;10677;50.942;4.028;2023-02-01T11:04:02;9.20;99.90
21037;DHT22;10677;50.942;4.028;2023-02-01T11:06:40;9.30;99.90
21037;DHT22;10677;50.942;4.028;2023-02-01T11:17:01;9.70;99.90
21037;DHT22;10677;50.942;4.028;2023-02-01T11:19:27;9.60;99.90
21037;DHT22;10677;50.942;4.028;2023-02-01T11:21:54;9.50;99.90
21037;DHT22;10677;50.942;4.028;2023-02-01T11:24:27;9.40;99.90
21037;DHT22;10677;50.942;4.028;2023-02-01T11:26:56;9.50;99.90
21037;DHT22;10677;50.942;4.028;2023-02-01T11:29:22;9.50;99.90
21037;DHT22;10677;50.942;4.028;2023-02-01T11:31:57;9.50;99.90
21037;DHT22;10677;50.942;4.028;2023-02-01T11:34:26;9.50;99.90
21037;DHT22;10677;50.942;4.028;2023-02-01T11:36:58;9.60;99.90
21037;DHT22;10677;50.942;4.028;2023-02-01T11:39:30;9.60;99.90
21037;DHT22;10677;50.942;4.028;2023-02-01T11:42:16;9.50;99.90
21037;DHT22;10677;50.942;4.028;2023-02-01T11:44:43;9.40;99.90
21037;DHT22;10677;50.942;4.028;2023-02-01T11:47:39;9.40;99.90
21037;DHT22;10677;50.942;4.028;2023-02-01T11:50:14;9.50;99.90
21037;DHT22;10677;50.942;4.028;2023-02-01T12:06:54;10.30;99.90
21037;DHT22;10677;50.942;4.028;2023-02-01T12:12:24;10.20;99.90
21037;DHT22;10677;50.942;4.028;2023-02-01T12:27:18;10.20;99.90
21037;DHT22;10677;50.942;4.028;2023-02-01T12:30:11;10.40;99.90
21037;DHT22;10677;50.942;4.028;2023-02-01T12:32:59;10.30;99.90
21037;DHT22;10677;50.942;4.028;2023-02-01T12:35:48;10.60;99.90
21037;DHT22;10677;50.942;4.028;2023-02-01T12:44:08;10.70;99.90
21037;DHT22;10677;50.942;4.028;2023-02-01T12:49:18;10.80;99.90
21037;DHT22;10677;50.942;4.028;2023-02-01T12:51:48;10.80;99.90
21037;DHT22;10677;50.942;4.028;2023-02-01T12:56:56;10.80;99.90
21037;DHT22;10677;50.942;4.028;2023-02-01T12:59:38;10.60;99.90
21037;DHT22;10677;50.942;4.028;2023-02-01T13:02:42;10.60;99.90
21037;DHT22;10677;50.942;4.028;2023-02-01T13:05:27;10.70;99.90
21037;DHT22;10677;50.942;4.028;2023-02-01T13:08:06;10.70;99.90
21037;DHT22;10677;50.942;4.028;2023-02-01T13:13:31;10.80;99.90
21037;DHT22;10677;50.942;4.028;2023-02-01T13:18:26;10.70;99.90
21037;DHT22;10677;50.942;4.028;2023-02-01T13:21:06;10.70;99.90
21037;DHT22;10677;50.942;4.028;2023-02-01T13:23:37;10.80;99.90
21037;DHT22;10677;50.942;4.028;2023-02-01T13:26:03;10.70;99.90
21037;DHT22;10677;50.942;4.028;2023-02-01T13:39:30;10.80;99.90
21037;DHT22;10677;50.942;4.028;2023-02-01T13:44:51;10.50;99.90
21037;DHT22;10677;50.942;4.028;2023-02-01T13:47:33;10.60;99.90
21037;DHT22;10677;50.942;4.028;2023-02-01T13:50:24;10.70;99.90
21037;DHT22;10677;50.942;4.028;2023-02-01T13:53:14;10.90;99.90
21037;DHT22;10677;50.942;4.028;2023-02-01T13:55:44;10.90;99.90
21037;DHT22;10677;50.942;4.028;2023-02-01T13:58:17;10.90;99.90
21037;DHT22;10677;50.942;4.028;2023-02-01T14:00:44;10.80;99.90
21037;DHT22;10677;50.942;4.028;2023-02-01T14:03:46;11.00;99.90
21037;DHT22;10677;50.942;4.028;2023-02-01T14:22:31;10.70;99.90
21037;DHT22;10677;50.942;4.028;2023-02-01T14:24:50;10.50;99.90
21037;DHT22;10677;50.942;4.028;2023-02-01T14:27:21;10.50;99.90
21037;DHT22;10677;50.942;4.028;2023-02-01T14:29:56;10.60;99.90
21037;DHT22;10677;50.942;4.028;2023-02-01T14:32:33;10.50;99.90
21037;DHT22;10677;50.942;4.028;2023-02-01T14:35:02;10.50;99.90
21037;DHT22;10677;50.942;4.028;2023-02-01T14:37:33;10.30;99.90
21037;DHT22;10677;50.942;4.028;2023-02-01T14:58:16;10.20;99.90
21037;DHT22;10677;50.942;4.028;2023-02-01T15:03:45;10.00;99.90
21037;DHT22;10677;50.942;4.028;2023-02-01T15:06:38;10.10;99.90
21037;DHT22;10677;50.942;4.028;2023-02-01T15:14:24;9.90;99.90
21037;DHT22;10677;50.942;4.028;2023-02-01T15:16:49;10.00;99.90
21037;DHT22;10677;50.942;4.028;2023-02-01T15:19:23;9.90;99.90
21037;DHT22;10677;50.942;4.028;2023-02-01T15:21:51;9.90;99.90
21037;DHT22;10677;50.942;4.028;2023-02-01T15:24:28;9.80;99.90
21037;DHT22;10677;50.942;4.028;2023-02-01T15:26:55;9.80;99.90
21037;DHT22;10677;50.942;4.028;2023-02-01T15:29:29;9.80;99.90
21037;DHT22;10677;50.942;4.028;2023-02-01T15:31:58;9.90;99.90
21037;DHT22;10677;50.942;4.028;2023-02-01T15:34:45;9.80;99.90
21037;DHT22;10677;50.942;4.028;2023-02-01T15:37:13;9.80;99.90
21037;DHT22;10677;50.942;4.028;2023-02-01T15:40:19;9.80;99.90
21037;DHT22;10677;50.942;4.028;2023-02-01T15:42:58;9.80;99.90
21037;DHT22;10677;50.942;4.028;2023-02-01T15:45:31;9.80;99.90
21037;DHT22;10677;50.942;4.028;2023-02-01T15:47:58;9.70;99.90
21037;DHT22;10677;50.942;4.028;2023-02-01T15:50:25;9.60;99.90
21037;DHT22;10677;50.942;4.028;2023-02-01T15:52:53;9.60;99.90
21037;DHT22;10677;50.942;4.028;2023-02-01T15:55:35;9.60;99.90
21037;DHT22;10677;50.942;4.028;2023-02-01T15:58:09;9.60;99.90
21037;DHT22;10677;50.942;4.028;2023-02-01T16:00:46;9.50;99.90
21037;DHT22;10677;50.942;4.028;2023-02-01T16:03:36;9.50;99.90
21037;DHT22;10677;50.942;4.028;2023-02-01T16:06:07;9.50;99.90
21037;DHT22;10677;50.942;4.028;2023-02-01T16:08:34;9.50;99.90
21037;DHT22;10677;50.942;4.028;2023-02-01T16:11:27;9.60;99.90
21037;DHT22;10677;50.942;4.028;2023-02-01T16:13:56;9.60;99.90
21037;DHT22;10677;50.942;4.028;2023-02-01T16:16:21;9.60;99.90
21037;DHT22;10677;50.942;4.028;2023-02-01T16:18:47;9.60;99.90
21037;DHT22;10677;50.942;4.028;2023-02-01T16:21:13;9.50;99.90
21037;DHT22;10677;50.942;4.028;2023-02-01T16:23:39;9.50;99.90
21037;DHT22;10677;50.942;4.028;2023-02-01T16:26:04;9.50;99.90
21037;DHT22;10677;50.942;4.028;2023-02-01T16:28:31;9.40;99.90
21037;DHT22;10677;50.942;4.028;2023-02-01T16:30:57;9.50;99.90
21037;DHT22;10677;50.942;4.028;2023-02-01T16:33:24;9.50;99.90
21037;DHT22;10677;50.942;4.028;2023-02-01T16:35:51;9.60;99.90
21037;DHT22;10677;50.942;4.028;2023-02-01T16:38:18;9.60;99.90
21037;DHT22;10677;50.942;4.028;2023-02-01T16:40:47;9.60;99.90
21037;DHT22;10677;50.942;4.028;2023-02-01T16:43:18;9.70;99.90
21037;DHT22;10677;50.942;4.028;2023-02-01T16:45:45;9.60;99.90
21037;DHT22;10677;50.942;4.028;2023-02-01T16:48:33;9.60;99.90
21037;DHT22;10677;50.942;4.028;2023-02-01T16:51:03;9.60;99.90
21037;DHT22;10677;50.942;4.028;2023-02-01T16:53:32;9.70;99.90
21037;DHT22;10677;50.942;4.028;2023-02-01T16:55:58;9.60;99.90
21037;DHT22;10677;50.942;4.028;2023-02-01T16:58:25;9.60;99.90
21037;DHT22;10677;50.942;4.028;2023-02-01T17:00:51;9.50;99.90
21037;DHT22;10677;50.942;4.028;2023-02-01T17:03:17;9.50;99.90
21037;DHT22;10677;50.942;4.028;2023-02-01T17:05:50;9.60;99.90
21037;DHT22;10677;50.942;4.028;2023-02-01T17:08:25;9.60;99.90
21037;DHT22;10677;50.942;4.028;2023-02-01T17:10:52;9.50;99.90
21037;DHT22;10677;50.942;4.028;2023-02-01T17:13:18;9.50;99.90
21037;DHT22;10677;50.942;4.028;2023-02-01T17:15:56;9.50;99.90
21037;DHT22;10677;50.942;4.028;2023-02-01T17:18:22;9.50;99.90
21037;DHT22;10677;50.942;4.028;2023-02-01T17:20:50;9.50;99.90
21037;DHT22;10677;50.942;4.028;2023-02-01T17:23:18;9.50;99.90
21037;DHT22;10677;50.942;4.028;2023-02-01T17:25:44;9.60;99.90
21037;DHT22;10677;50.942;4.028;2023-02-01T17:28:10;9.70;99.90
21037;DHT22;10677;50.942;4.028;2023-02-01T17:30:37;9.70;99.90
21037;DHT22;10677;50.942;4.028;2023-02-01T17:33:03;9.70;99.90
21037;DHT22;10677;50.942;4.028;2023-02-01T17:35:29;9.60;99.90
21037;DHT22;10677;50.942;4.028;2023-02-01T17:37:56;9.50;99.90
21037;DHT22;10677;50.942;4.028;2023-02-01T17:40:23;9.50;99.90
21037;DHT22;10677;50.942;4.028;2023-02-01T17:42:49;9.60;99.90
21037;DHT22;10677;50.942;4.028;2023-02-01T17:45:36;9.60;99.90
21037;DHT22;10677;50.942;4.028;2023-02-01T17:48:06;9.70;99.90
21037;DHT22;10677;50.942;4.028;2023-02-01T17:50:34;9.70;99.90
21037;DHT22;10677;50.942;4.028;2023-02-01T17:53:01;9.60;99.90
21037;DHT22;10677;50.942;4.028;2023-02-01T17:55:28;9.60;99.90
21037;DHT22;10677;50.942;4.028;2023-02-01T17:57:54;9.60;99.90
21037;DHT22;10677;50.942;4.028;2023-02-01T18:00:20;9.60;99.90
21037;DHT22;10677;50.942;4.028;2023-02-01T18:02:46;9.60;99.90
21037;DHT22;10677;50.942;4.028;2023-02-01T18:05:23;9.60;99.90
21037;DHT22;10677;50.942;4.028;2023-02-01T18:07:50;9.50;99.90
21037;DHT22;10677;50.942;4.028;2023-02-01T18:10:16;9.40;99.90
21037;DHT22;10677;50.942;4.028;2023-02-01T18:12:42;9.40;99.90
21037;DHT22;10677;50.942;4.028;2023-02-01T18:15:19;9.50;99.90
21037;DHT22;10677;50.942;4.028;2023-02-01T18:17:45;9.60;99.90
21037;DHT22;10677;50.942;4.028;2023-02-01T18:20:16;9.60;99.90
21037;DHT22;10677;50.942;4.028;2023-02-01T18:22:43;9.60;99.90
21037;DHT22;10677;50.942;4.028;2023-02-01T18:25:21;9.50;99.90
21037;DHT22;10677;50.942;4.028;2023-02-01T18:27:49;9.40;99.90
21037;DHT22;10677;50.942;4.028;2023-02-01T18:30:16;9.50;99.90
21037;DHT22;10677;50.942;4.028;2023-02-01T18:32:43;9.50;99.90
21037;DHT22;10677;50.942;4.028;2023-02-01T18:35:28;9.60;99.90